createdAt,value
2018-04-25T00:00:03.927Z,51.90
2018-04-25T00:02:33.027Z,51.90
2018-04-25T00:05:01.808Z,51.90
2018-04-25T00:07:31.427Z,52.20
2018-04-25T00:09:59.730Z,51.90
2018-04-25T00:12:28.687Z,51.80
2018-04-25T00:14:58.289Z,51.70
2018-04-25T00:17:27.247Z,51.70
2018-04-25T00:19:56.010Z,51.70
2018-04-25T00:22:25.247Z,51.90
2018-04-25T00:24:53.988Z,51.90
2018-04-25T00:27:24.007Z,51.70
2018-04-25T00:29:54.074Z,52.10
2018-04-25T00:32:23.347Z,51.60
2018-04-25T00:34:51.707Z,51.70
2018-04-25T00:37:20.748Z,51.70
2018-04-25T00:39:50.488Z,51.80
2018-04-25T00:42:19.246Z,51.70
2018-04-25T00:44:48.528Z,51.70
2018-04-25T00:47:17.487Z,51.60
2018-04-25T00:49:46.467Z,51.60
2018-04-25T00:52:17.008Z,51.70
2018-04-25T00:54:45.787Z,51.70
2018-04-25T00:57:14.447Z,51.70
2018-04-25T00:59:43.727Z,51.60
2018-04-25T01:02:12.728Z,51.50
2018-04-25T01:04:41.727Z,51.50
2018-04-25T01:07:10.707Z,51.80
2018-04-25T01:09:39.427Z,51.80
2018-04-25T01:12:08.166Z,51.70
2018-04-25T01:14:37.167Z,51.60
2018-04-25T01:17:05.649Z,51.50
2018-04-25T01:19:34.412Z,51.50
2018-04-25T01:22:03.567Z,51.80
2018-04-25T01:24:33.647Z,52.00
2018-04-25T01:27:05.168Z,52.30
2018-04-25T01:29:34.207Z,52.50
2018-04-25T01:32:05.486Z,52.70
2018-04-25T01:34:52.446Z,53.20
2018-04-25T01:37:29.707Z,52.90
2018-04-25T01:40:01.850Z,53.10
2018-04-25T01:46:08.054Z,53.70
2018-04-25T01:51:44.626Z,53.80
2018-04-25T01:54:25.430Z,53.70
2018-04-25T01:57:05.846Z,54.20
2018-04-25T01:59:46.446Z,54.20
2018-04-25T02:02:14.447Z,54.30
2018-04-25T02:04:43.406Z,54.50
2018-04-25T02:07:12.147Z,54.50
2018-04-25T02:09:40.686Z,55.00
2018-04-25T02:12:09.886Z,54.30
2018-04-25T02:14:39.106Z,54.90
2018-04-25T02:17:07.626Z,55.00
2018-04-25T02:19:36.845Z,55.00
2018-04-25T02:22:05.326Z,55.10
2018-04-25T02:24:35.085Z,55.20
2018-04-25T02:27:04.325Z,55.30
2018-04-25T02:29:33.606Z,55.40
2018-04-25T02:32:03.106Z,55.50
2018-04-25T02:34:32.346Z,55.70
2018-04-25T02:37:01.607Z,55.90
2018-04-25T02:39:30.846Z,56.10
2018-04-25T02:42:00.109Z,56.10
2018-04-25T02:44:28.906Z,56.30
2018-04-25T02:46:58.067Z,56.40
2018-04-25T02:49:27.327Z,56.40
2018-04-25T02:51:56.306Z,56.30
2018-04-25T02:54:25.589Z,56.10
2018-04-25T02:56:54.187Z,55.90
2018-04-25T02:59:23.808Z,55.40
2018-04-25T03:01:52.911Z,55.30
2018-04-25T03:04:22.047Z,54.20
2018-04-25T03:06:50.867Z,53.70
2018-04-25T03:09:19.766Z,53.40
2018-04-25T03:11:48.531Z,53.20
2018-04-25T03:14:18.287Z,53.10
2018-04-25T03:16:47.101Z,53.00
2018-04-25T03:19:16.009Z,53.40
2018-04-25T03:21:45.268Z,52.80
2018-04-25T03:24:14.252Z,52.60
2018-04-25T03:26:42.489Z,52.70
2018-04-25T03:29:12.228Z,52.30
2018-04-25T03:31:40.848Z,52.20
2018-04-25T03:34:10.229Z,52.40
2018-04-25T03:36:39.472Z,52.20
2018-04-25T03:39:09.108Z,52.10
2018-04-25T03:41:37.710Z,51.80
2018-04-25T03:44:06.971Z,51.70
2018-04-25T03:46:35.969Z,51.60
2018-04-25T03:49:05.209Z,52.00
2018-04-25T03:51:34.189Z,51.60
2018-04-25T03:54:02.908Z,51.50
2018-04-25T03:56:31.728Z,51.20
2018-04-25T03:59:00.693Z,51.30
2018-04-25T04:01:29.669Z,51.30
2018-04-25T04:03:57.868Z,51.30
2018-04-25T04:06:26.875Z,52.00
2018-04-25T04:08:55.448Z,51.10
2018-04-25T04:11:23.848Z,51.00
2018-04-25T04:13:53.068Z,50.90
2018-04-25T04:16:21.848Z,50.90
2018-04-25T04:18:51.508Z,51.00
2018-04-25T04:21:21.110Z,50.90
2018-04-25T04:23:50.708Z,51.20
2018-04-25T04:26:19.838Z,51.00
2018-04-25T04:28:48.589Z,51.20
2018-04-25T04:31:17.829Z,51.40
2018-04-25T04:33:46.592Z,51.60
2018-04-25T04:36:15.488Z,51.70
2018-04-25T04:38:45.068Z,51.90
2018-04-25T04:41:14.569Z,52.00
2018-04-25T04:43:43.569Z,52.10
2018-04-25T04:46:12.237Z,51.90
2018-04-25T04:48:41.308Z,51.70
2018-04-25T04:51:10.169Z,51.70
2018-04-25T04:53:39.814Z,51.50
2018-04-25T04:56:09.308Z,51.50
2018-04-25T04:58:39.069Z,51.30
2018-04-25T05:01:08.077Z,51.20
2018-04-25T05:03:38.589Z,51.10
2018-04-25T05:06:07.589Z,51.10
2018-04-25T05:08:36.800Z,51.00
2018-04-25T05:11:05.849Z,50.50
2018-04-25T05:13:36.349Z,50.90
2018-04-25T05:16:05.149Z,51.10
2018-04-25T05:18:33.829Z,50.70
2018-04-25T05:21:02.552Z,50.80
2018-04-25T05:23:32.090Z,50.70
2018-04-25T05:26:01.569Z,50.50
2018-04-25T05:28:30.309Z,50.30
2018-04-25T05:30:59.589Z,50.50
2018-04-25T05:33:29.069Z,50.40
2018-04-25T05:35:57.750Z,50.40
2018-04-25T05:38:29.629Z,50.30
2018-04-25T05:40:59.871Z,50.50
2018-04-25T05:43:29.388Z,50.50
2018-04-25T05:45:58.141Z,50.50
2018-04-25T05:48:27.888Z,50.60
2018-04-25T05:50:57.149Z,50.40
2018-04-25T05:53:26.429Z,50.40
2018-04-25T05:55:55.133Z,50.10
2018-04-25T05:58:25.668Z,50.00
2018-04-25T06:00:54.668Z,49.80
2018-04-25T06:03:24.469Z,49.10
2018-04-25T06:05:53.529Z,49.70
2018-04-25T06:08:22.908Z,49.50
2018-04-25T06:10:51.590Z,49.60
2018-04-25T06:13:21.150Z,49.40
2018-04-25T06:15:49.628Z,49.40
2018-04-25T06:18:18.589Z,49.70
2018-04-25T06:20:47.868Z,49.60
2018-04-25T06:23:16.631Z,49.30
2018-04-25T06:25:46.405Z,49.20
2018-04-25T06:28:15.413Z,48.70
2018-04-25T06:30:44.554Z,48.30
2018-04-25T06:33:13.349Z,48.40
2018-04-25T06:35:42.609Z,48.40
2018-04-25T06:38:11.589Z,48.40
2018-04-25T06:40:40.329Z,48.60
2018-04-25T06:43:09.329Z,48.30
2018-04-25T06:45:38.517Z,48.30
2018-04-25T06:48:07.309Z,48.30
2018-04-25T06:50:36.417Z,48.10
2018-04-25T06:53:05.308Z,48.00
2018-04-25T06:55:35.568Z,47.70
2018-04-25T06:58:04.048Z,47.70
2018-04-25T07:00:32.789Z,47.90
2018-04-25T07:03:02.128Z,47.20
2018-04-25T07:05:31.578Z,47.20
2018-04-25T07:08:00.088Z,47.20
2018-04-25T07:10:29.543Z,46.90
2018-04-25T07:12:58.532Z,47.00
2018-04-25T07:15:27.517Z,47.20
2018-04-25T07:17:57.018Z,47.20
2018-04-25T07:20:25.805Z,47.70
2018-04-25T07:22:55.033Z,47.60
2018-04-25T07:25:23.753Z,47.80
2018-04-25T07:27:52.624Z,47.70
2018-04-25T07:30:21.505Z,48.30
2018-04-25T07:32:50.228Z,48.00
2018-04-25T07:35:19.450Z,47.90
2018-04-25T07:37:48.210Z,47.80
2018-04-25T07:40:17.134Z,48.00
2018-04-25T07:42:45.934Z,47.80
2018-04-25T07:45:14.671Z,47.50
2018-04-25T07:47:43.146Z,47.50
2018-04-25T07:50:11.694Z,47.40
2018-04-25T07:52:40.633Z,47.50
2018-04-25T07:55:09.356Z,47.30
2018-04-25T07:57:38.649Z,47.50
2018-04-25T08:00:07.351Z,47.60
2018-04-25T08:02:36.334Z,47.50
2018-04-25T08:05:04.915Z,47.70
2018-04-25T08:07:34.323Z,47.50
2018-04-25T08:10:02.849Z,47.30
2018-04-25T08:12:43.324Z,47.40
2018-04-25T08:15:23.591Z,46.70
2018-04-25T08:18:03.852Z,46.20
2018-04-25T08:20:44.874Z,46.40
2018-04-25T08:23:13.354Z,46.10
2018-04-25T08:25:42.115Z,45.00
2018-04-25T08:28:11.055Z,44.90
2018-04-25T08:30:40.065Z,45.10
2018-04-25T08:33:08.294Z,44.60
2018-04-25T08:35:36.519Z,44.60
2018-04-25T08:38:04.994Z,44.90
2018-04-25T08:40:34.024Z,45.00
2018-04-25T08:43:02.761Z,44.50
2018-04-25T08:45:32.741Z,43.80
2018-04-25T08:48:02.002Z,43.60
2018-04-25T08:50:30.965Z,44.00
2018-04-25T08:52:59.723Z,45.00
2018-04-25T08:55:29.002Z,45.50
2018-04-25T08:57:58.225Z,45.90
2018-04-25T09:00:27.223Z,46.90
2018-04-25T09:02:55.954Z,47.10
2018-04-25T09:05:25.207Z,47.70
2018-04-25T09:07:54.208Z,47.60
2018-04-25T09:10:23.448Z,47.60
2018-04-25T09:12:52.447Z,47.40
2018-04-25T09:15:21.451Z,47.40
2018-04-25T09:17:50.439Z,47.60
2018-04-25T09:20:19.532Z,47.40
2018-04-25T09:22:48.011Z,47.60
2018-04-25T09:25:16.815Z,46.90
2018-04-25T09:27:45.626Z,47.30
2018-04-25T09:30:14.361Z,45.70
2018-04-25T09:32:43.361Z,44.70
2018-04-25T09:35:11.678Z,44.10
2018-04-25T09:37:40.602Z,43.50
2018-04-25T09:40:09.602Z,43.20
2018-04-25T09:42:38.062Z,42.70
2018-04-25T09:45:06.522Z,42.60
2018-04-25T09:47:36.038Z,43.10
2018-04-25T09:50:04.522Z,42.90
2018-04-25T09:52:33.763Z,42.20
2018-04-25T09:55:01.839Z,41.30
2018-04-25T09:57:31.019Z,42.20
2018-04-25T10:00:02.206Z,42.20
2018-04-25T10:02:34.475Z,42.30
2018-04-25T10:05:05.394Z,42.40
2018-04-25T10:07:34.490Z,41.90
2018-04-25T10:10:04.149Z,42.00
2018-04-25T10:12:32.889Z,42.10
2018-04-25T10:15:01.472Z,42.30
2018-04-25T10:17:30.372Z,42.50
2018-04-25T10:19:59.594Z,42.20
2018-04-25T10:22:28.601Z,42.20
2018-04-25T10:24:57.420Z,42.10
2018-04-25T10:27:26.120Z,41.90
2018-04-25T10:29:55.319Z,42.70
2018-04-25T10:32:23.801Z,42.00
2018-04-25T10:34:53.060Z,42.70
2018-04-25T10:37:22.300Z,41.60
2018-04-25T10:39:51.110Z,42.00
2018-04-25T10:42:20.280Z,41.90
2018-04-25T10:44:49.032Z,42.30
2018-04-25T10:47:17.512Z,42.00
2018-04-25T10:49:47.013Z,41.30
2018-04-25T10:52:15.994Z,41.70
2018-04-25T10:54:44.992Z,41.30
2018-04-25T10:57:14.253Z,41.30
2018-04-25T10:59:43.773Z,41.00
2018-04-25T11:02:12.993Z,40.80
2018-04-25T11:04:41.992Z,40.70
2018-04-25T11:07:10.753Z,40.80
2018-04-25T11:09:40.433Z,40.50
2018-04-25T11:12:09.636Z,40.50
2018-04-25T11:14:38.472Z,40.00
2018-04-25T11:17:07.213Z,40.10
2018-04-25T11:19:35.972Z,39.40
2018-04-25T11:22:05.972Z,39.00
2018-04-25T11:24:34.732Z,38.90
2018-04-25T11:27:03.972Z,39.10
2018-04-25T11:29:32.952Z,38.30
2018-04-25T11:32:01.952Z,38.60
2018-04-25T11:34:30.692Z,38.80
2018-04-25T11:36:59.674Z,38.10
2018-04-25T11:39:29.171Z,38.50
2018-04-25T11:41:58.432Z,38.00
2018-04-25T11:44:27.951Z,38.00
2018-04-25T11:46:56.671Z,38.20
2018-04-25T11:49:25.690Z,37.60
2018-04-25T11:51:55.511Z,37.40
2018-04-25T11:54:24.139Z,37.60
2018-04-25T11:56:53.191Z,37.60
2018-04-25T11:59:23.431Z,37.10
2018-04-25T12:01:52.931Z,37.10
2018-04-25T12:04:21.931Z,36.70
2018-04-25T12:06:51.431Z,36.70
2018-04-25T12:09:20.692Z,36.60
2018-04-25T12:11:49.931Z,35.70
2018-04-25T12:14:18.910Z,36.20
2018-04-25T12:16:47.411Z,36.20
2018-04-25T12:19:16.331Z,35.80
2018-04-25T12:21:46.172Z,35.60
2018-04-25T12:24:15.429Z,35.30
2018-04-25T12:26:44.411Z,35.30
2018-04-25T12:29:13.676Z,35.80
2018-04-25T12:31:43.411Z,36.00
2018-04-25T12:34:12.412Z,36.00
2018-04-25T12:36:41.100Z,35.90
2018-04-25T12:39:10.672Z,36.30
2018-04-25T12:41:40.694Z,37.40
2018-04-25T12:44:09.408Z,37.40
2018-04-25T12:46:38.392Z,37.80
2018-04-25T12:49:07.232Z,38.00
2018-04-25T12:51:36.391Z,37.90
2018-04-25T12:54:04.943Z,37.50
2018-04-25T12:56:33.612Z,37.10
2018-04-25T12:59:03.452Z,37.10
2018-04-25T13:01:33.169Z,37.20
2018-04-25T13:04:02.111Z,37.00
2018-04-25T13:06:30.711Z,36.50
2018-04-25T13:08:59.859Z,36.70
2018-04-25T13:11:29.630Z,37.40
2018-04-25T13:13:58.871Z,37.30
2018-04-25T13:16:28.595Z,37.80
2018-04-25T13:18:57.091Z,38.50
2018-04-25T13:21:25.345Z,38.40
2018-04-25T13:23:54.311Z,38.00
2018-04-25T13:26:22.971Z,38.80
2018-04-25T13:28:51.572Z,39.30
2018-04-25T13:31:20.870Z,40.10
2018-04-25T13:33:50.292Z,40.50
2018-04-25T13:36:19.013Z,40.50
2018-04-25T13:38:48.031Z,40.50
2018-04-25T13:41:17.211Z,40.30
2018-04-25T13:43:45.756Z,40.90
2018-04-25T13:46:14.752Z,41.30
2018-04-25T13:48:43.466Z,41.80
2018-04-25T13:51:12.470Z,42.50
2018-04-25T13:53:41.478Z,42.60
2018-04-25T13:56:13.034Z,42.40
2018-04-25T13:58:41.770Z,42.70
2018-04-25T14:01:10.749Z,41.90
2018-04-25T14:03:39.830Z,41.60
2018-04-25T14:06:08.997Z,40.80
2018-04-25T14:08:38.193Z,41.00
2018-04-25T14:11:07.129Z,40.80
2018-04-25T14:13:35.724Z,40.80
2018-04-25T14:16:04.484Z,40.80
2018-04-25T14:18:33.563Z,40.20
2018-04-25T14:21:02.452Z,40.10
2018-04-25T14:23:31.944Z,40.30
2018-04-25T14:26:00.946Z,40.00
2018-04-25T14:28:30.228Z,40.70
2018-04-25T14:30:59.444Z,39.10
2018-04-25T14:33:28.215Z,39.50
2018-04-25T14:35:56.904Z,40.10
2018-04-25T14:38:26.263Z,39.90
2018-04-25T14:40:55.027Z,39.90
2018-04-25T14:43:24.186Z,39.40
2018-04-25T14:45:53.365Z,40.50
2018-04-25T14:48:22.709Z,40.70
2018-04-25T14:50:51.903Z,41.00
2018-04-25T14:53:21.164Z,41.50
2018-04-25T14:55:51.423Z,42.30
2018-04-25T14:58:20.163Z,42.30
2018-04-25T15:00:48.483Z,42.60
2018-04-25T15:03:17.465Z,42.70
2018-04-25T15:05:46.925Z,43.20
2018-04-25T15:08:16.005Z,43.70
2018-04-25T15:10:45.123Z,44.00
2018-04-25T15:13:13.383Z,44.00
2018-04-25T15:15:41.844Z,44.20
2018-04-25T15:18:11.603Z,44.10
2018-04-25T15:20:40.583Z,44.50
2018-04-25T15:23:10.082Z,44.20
2018-04-25T15:25:38.564Z,44.40
2018-04-25T15:28:08.023Z,44.80
2018-04-25T15:30:36.822Z,45.00
2018-04-25T15:33:06.062Z,45.20
2018-04-25T15:35:34.403Z,45.10
2018-04-25T15:38:03.287Z,44.80
2018-04-25T15:40:32.187Z,44.80
2018-04-25T15:43:02.028Z,44.80
2018-04-25T15:45:30.267Z,44.90
2018-04-25T15:47:58.882Z,45.20
2018-04-25T15:50:27.483Z,46.20
2018-04-25T15:52:56.730Z,45.90
2018-04-25T15:55:25.452Z,45.70
2018-04-25T15:57:53.951Z,45.80
2018-04-25T16:00:22.933Z,46.00
2018-04-25T16:02:51.555Z,46.00
2018-04-25T16:05:21.191Z,46.40
2018-04-25T16:07:50.192Z,46.40
2018-04-25T16:10:18.910Z,46.80
2018-04-25T16:12:48.195Z,46.60
2018-04-25T16:15:17.785Z,46.70
2018-04-25T16:17:46.671Z,46.60
2018-04-25T16:20:15.681Z,46.80
2018-04-25T16:22:44.642Z,47.10
2018-04-25T16:25:13.631Z,47.50
2018-04-25T16:27:42.632Z,47.60
2018-04-25T16:30:11.151Z,47.60
2018-04-25T16:32:40.107Z,47.50
2018-04-25T16:35:09.047Z,47.40
2018-04-25T16:37:38.104Z,47.20
2018-04-25T16:40:06.604Z,47.00
2018-04-25T16:42:35.563Z,47.20
2018-04-25T16:45:04.323Z,47.40
2018-04-25T16:47:33.822Z,48.10
2018-04-25T16:50:02.806Z,47.50
2018-04-25T16:52:31.540Z,48.00
2018-04-25T16:55:00.299Z,48.30
2018-04-25T16:57:29.780Z,47.40
2018-04-25T16:59:59.081Z,47.50
2018-04-25T17:02:28.779Z,47.60
2018-04-25T17:04:58.311Z,47.90
2018-04-25T17:07:27.068Z,47.90
2018-04-25T17:09:55.808Z,47.70
2018-04-25T17:12:25.039Z,47.80
2018-04-25T17:14:53.759Z,48.20
2018-04-25T17:17:24.634Z,48.10
2018-04-25T17:19:53.796Z,47.80
2018-04-25T17:22:22.776Z,47.90
2018-04-25T17:24:51.516Z,48.20
2018-04-25T17:27:20.236Z,48.50
2018-04-25T17:29:49.516Z,48.70
2018-04-25T17:32:20.037Z,48.80
2018-04-25T17:34:48.356Z,49.00
2018-04-25T17:37:16.996Z,49.10
2018-04-25T17:39:45.806Z,49.10
2018-04-25T17:42:14.986Z,48.90
2018-04-25T17:44:43.584Z,49.10
2018-04-25T17:47:12.985Z,49.20
2018-04-25T17:49:42.925Z,48.70
2018-04-25T17:52:12.786Z,48.60
2018-04-25T17:54:41.746Z,48.90
2018-04-25T17:57:10.266Z,48.90
2018-04-25T17:59:39.589Z,48.90
2018-04-25T18:02:07.963Z,48.90
2018-04-25T18:04:36.974Z,48.60
2018-04-25T18:07:05.455Z,48.70
2018-04-25T18:09:34.657Z,48.20
2018-04-25T18:12:03.438Z,48.30
2018-04-25T18:14:33.424Z,48.50
2018-04-25T18:17:02.560Z,48.40
2018-04-25T18:19:31.383Z,48.30
2018-04-25T18:22:00.035Z,48.30
2018-04-25T18:24:29.669Z,48.30
2018-04-25T18:26:58.676Z,48.30
2018-04-25T18:29:27.276Z,48.30
2018-04-25T18:31:55.594Z,48.60
2018-04-25T18:34:24.916Z,48.50
2018-04-25T18:36:53.863Z,48.50
2018-04-25T18:39:23.624Z,48.20
2018-04-25T18:41:51.960Z,48.70
2018-04-25T18:44:20.580Z,48.30
2018-04-25T18:46:49.550Z,48.70
2018-04-25T18:49:18.590Z,49.00
2018-04-25T18:51:48.069Z,49.00
2018-04-25T18:54:17.349Z,48.80
2018-04-25T18:56:46.070Z,49.10
2018-04-25T18:59:15.210Z,48.80
2018-04-25T19:01:44.350Z,48.90
2018-04-25T19:04:13.230Z,48.80
2018-04-25T19:06:42.309Z,49.00
2018-04-25T19:09:11.030Z,49.80
2018-04-25T19:11:40.270Z,49.40
2018-04-25T19:14:09.291Z,49.30
2018-04-25T19:16:38.269Z,49.20
2018-04-25T19:19:08.029Z,49.30
2018-04-25T19:21:36.769Z,49.30
2018-04-25T19:24:05.748Z,49.00
2018-04-25T19:26:35.188Z,49.20
2018-04-25T19:29:04.516Z,49.50
2018-04-25T19:31:33.510Z,49.60
2018-04-25T19:34:02.748Z,50.80
2018-04-25T19:36:31.749Z,50.40
2018-04-25T19:39:00.568Z,50.40
2018-04-25T19:41:30.010Z,50.70
2018-04-25T19:43:59.247Z,50.80
2018-04-25T19:46:28.248Z,51.20
2018-04-25T19:48:57.929Z,51.30
2018-04-25T19:51:26.469Z,50.70
2018-04-25T19:53:55.668Z,50.70
2018-04-25T19:56:23.951Z,50.70
2018-04-25T19:58:53.189Z,50.70
2018-04-25T20:01:21.929Z,50.40
2018-04-25T20:03:51.949Z,50.40
2018-04-25T20:06:20.689Z,50.40
2018-04-25T20:08:50.193Z,50.30
2018-04-25T20:11:19.428Z,50.70
2018-04-25T20:13:48.902Z,50.80
2018-04-25T20:16:17.877Z,51.60
2018-04-25T20:18:46.873Z,51.40
2018-04-25T20:21:15.948Z,52.00
2018-04-25T20:23:45.449Z,52.30
2018-04-25T20:26:14.690Z,52.40
2018-04-25T20:28:43.710Z,52.30
2018-04-25T20:31:13.029Z,51.90
2018-04-25T20:33:42.188Z,51.70
2018-04-25T20:36:11.635Z,51.50
2018-04-25T20:38:40.171Z,51.10
2018-04-25T20:41:09.148Z,51.20
2018-04-25T20:43:38.410Z,51.20
2018-04-25T20:46:07.930Z,51.40
2018-04-25T20:48:36.909Z,50.50
2018-04-25T20:51:05.950Z,50.50
2018-04-25T20:53:34.569Z,50.60
2018-04-25T20:56:03.629Z,50.40
2018-04-25T20:58:33.391Z,50.80
2018-04-25T21:01:02.390Z,50.90
2018-04-25T21:03:31.631Z,52.80
2018-04-25T21:06:00.389Z,55.00
2018-04-25T21:08:29.873Z,54.80
2018-04-25T21:10:59.377Z,54.60
2018-04-25T21:13:28.729Z,55.00
2018-04-25T21:15:58.129Z,54.80
2018-04-25T21:18:28.135Z,54.70
2018-04-25T21:20:57.148Z,52.90
2018-04-25T21:23:26.648Z,52.60
2018-04-25T21:25:55.908Z,53.50
2018-04-25T21:28:24.888Z,51.50
2018-04-25T21:30:53.748Z,50.40
2018-04-25T21:33:22.748Z,50.50
2018-04-25T21:35:51.701Z,50.10
2018-04-25T21:38:20.832Z,49.30
2018-04-25T21:40:49.868Z,49.20
2018-04-25T21:43:18.868Z,48.90
2018-04-25T21:45:49.128Z,48.50
2018-04-25T21:48:18.387Z,49.30
2018-04-25T21:50:47.488Z,49.30
2018-04-25T21:53:16.328Z,49.00
2018-04-25T21:55:45.348Z,48.70
2018-04-25T21:58:14.354Z,48.40
2018-04-25T22:00:43.072Z,48.20
2018-04-25T22:03:12.070Z,47.90
2018-04-25T22:05:41.109Z,47.80
2018-04-25T22:08:10.331Z,47.60
2018-04-25T22:10:39.068Z,47.90
2018-04-25T22:13:08.049Z,48.30
2018-04-25T22:15:36.689Z,48.70
2018-04-25T22:18:05.549Z,48.30
2018-04-25T22:20:34.510Z,47.90
2018-04-25T22:23:03.329Z,47.70
2018-04-25T22:25:32.649Z,47.50
2018-04-25T22:28:01.269Z,47.20
2018-04-25T22:30:30.488Z,48.80
2018-04-25T22:32:59.992Z,50.90
2018-04-25T22:35:28.989Z,51.80
2018-04-25T22:37:58.209Z,51.30
2018-04-25T22:40:28.009Z,48.80
2018-04-25T22:42:56.668Z,48.40
2018-04-25T22:45:26.248Z,47.90
2018-04-25T22:47:54.970Z,47.60
2018-04-25T22:50:23.709Z,46.20
2018-04-25T22:52:52.816Z,46.80
2018-04-25T22:55:21.288Z,46.70
2018-04-25T22:57:50.472Z,46.90
2018-04-25T23:00:22.468Z,46.80
2018-04-25T23:02:51.528Z,46.70
2018-04-25T23:05:21.008Z,46.90
2018-04-25T23:07:50.435Z,46.60
2018-04-25T23:10:19.548Z,46.40
2018-04-25T23:12:48.228Z,46.20
2018-04-25T23:15:17.009Z,46.10
2018-04-25T23:17:46.248Z,46.00
2018-04-25T23:20:15.028Z,45.50
2018-04-25T23:22:44.228Z,45.50
2018-04-25T23:25:13.730Z,45.40
2018-04-25T23:27:42.969Z,45.70
2018-04-25T23:30:12.288Z,45.90
2018-04-25T23:32:41.708Z,45.30
2018-04-25T23:35:10.748Z,45.50
2018-04-25T23:37:39.655Z,45.50
2018-04-25T23:40:08.650Z,45.10
2018-04-25T23:42:38.212Z,45.10
2018-04-25T23:45:07.008Z,44.60
2018-04-25T23:47:35.668Z,44.10
2018-04-25T23:50:04.669Z,43.90
2018-04-25T23:52:33.915Z,43.80
2018-04-25T23:55:02.649Z,43.90
2018-04-25T23:57:30.970Z,43.90
